createdAt,value
2018-10-12T00:01:29.918Z,32.83
2018-10-12T00:03:58.183Z,34.50
2018-10-12T00:06:26.462Z,38.27
2018-10-12T00:08:54.788Z,31.87
2018-10-12T00:11:23.058Z,33.27
2018-10-12T00:13:51.313Z,31.30
2018-10-12T00:16:19.581Z,36.43
2018-10-12T00:18:47.846Z,33.83
2018-10-12T00:21:16.106Z,33.03
2018-10-12T00:23:44.444Z,32.60
2018-10-12T00:26:12.710Z,29.80
2018-10-12T00:28:40.967Z,33.10
2018-10-12T00:31:09.379Z,30.87
2018-10-12T00:33:37.757Z,31.43
2018-10-12T00:36:06.343Z,30.80
2018-10-12T00:38:34.635Z,33.03
2018-10-12T00:41:02.967Z,28.07
2018-10-12T00:43:31.241Z,34.97
2018-10-12T00:45:59.561Z,32.47
2018-10-12T00:48:27.935Z,37.13
2018-10-12T00:50:56.218Z,40.83
2018-10-12T00:53:24.490Z,40.90
2018-10-12T00:55:52.875Z,47.90
2018-10-12T00:58:21.152Z,45.87
2018-10-12T01:00:49.528Z,45.93
2018-10-12T01:03:17.907Z,40.30
2018-10-12T01:05:46.223Z,42.53
2018-10-12T01:08:14.479Z,45.27
2018-10-12T01:10:42.780Z,42.33
2018-10-12T01:13:11.043Z,40.63
2018-10-12T01:15:39.371Z,39.83
2018-10-12T01:18:07.780Z,43.60
2018-10-12T01:20:36.080Z,40.10
2018-10-12T01:23:04.367Z,43.00
2018-10-12T01:25:32.707Z,40.50
2018-10-12T01:28:01.038Z,38.27
2018-10-12T01:30:29.476Z,38.60
2018-10-12T01:33:02.660Z,36.40
2018-10-12T01:35:30.930Z,39.63
2018-10-12T01:37:59.339Z,37.03
2018-10-12T01:40:27.954Z,39.53
2018-10-12T01:42:56.403Z,35.73
2018-10-12T01:45:24.725Z,38.83
2018-10-12T01:47:53.020Z,39.37
2018-10-12T01:50:21.311Z,46.70
2018-10-12T01:52:49.642Z,38.73
2018-10-12T01:55:17.997Z,40.70
2018-10-12T01:57:46.266Z,37.40
2018-10-12T02:00:14.568Z,39.07
2018-10-12T02:02:43.046Z,36.90
2018-10-12T02:05:11.312Z,34.00
2018-10-12T02:07:39.606Z,36.90
2018-10-12T02:10:08.012Z,35.53
2018-10-12T02:12:36.272Z,36.17
2018-10-12T02:15:05.244Z,36.73
2018-10-12T02:17:33.509Z,33.63
2018-10-12T02:20:01.797Z,38.47
2018-10-12T02:22:30.072Z,39.23
2018-10-12T02:24:58.455Z,37.50
2018-10-12T02:27:26.731Z,37.57
2018-10-12T02:29:55.021Z,42.47
2018-10-12T02:32:23.393Z,39.33
2018-10-12T02:34:51.762Z,36.70
2018-10-12T02:37:20.039Z,39.33
2018-10-12T02:39:48.336Z,37.80
2018-10-12T02:42:16.629Z,38.77
2018-10-12T02:44:44.880Z,40.90
2018-10-12T02:47:13.203Z,45.70
2018-10-12T02:49:41.540Z,41.17
2018-10-12T02:52:09.931Z,40.70
2018-10-12T02:54:38.266Z,45.77
2018-10-12T02:57:06.709Z,42.57
2018-10-12T02:59:34.982Z,42.37
2018-10-12T03:02:03.253Z,45.87
2018-10-12T03:04:31.579Z,46.57
2018-10-12T03:06:59.850Z,46.47
2018-10-12T03:09:28.202Z,45.07
2018-10-12T03:11:56.549Z,50.87
2018-10-12T03:14:24.929Z,47.60
2018-10-12T03:16:53.192Z,44.70
2018-10-12T03:19:21.485Z,46.53
2018-10-12T03:21:49.779Z,43.80
2018-10-12T03:24:18.095Z,43.10
2018-10-12T03:26:46.435Z,47.17
2018-10-12T03:29:14.707Z,43.93
2018-10-12T03:31:43.030Z,45.57
2018-10-12T03:34:11.346Z,41.87
2018-10-12T03:36:39.771Z,45.33
2018-10-12T03:39:08.527Z,42.20
2018-10-12T03:41:36.799Z,41.87
2018-10-12T03:44:05.097Z,41.27
2018-10-12T03:46:33.462Z,41.67
2018-10-12T03:49:01.899Z,40.57
2018-10-12T03:51:30.223Z,44.37
2018-10-12T03:53:58.530Z,45.57
2018-10-12T03:56:26.883Z,44.10
2018-10-12T03:58:55.159Z,48.10
2018-10-12T04:01:23.438Z,45.30
2018-10-12T04:03:51.721Z,47.73
2018-10-12T04:06:20.105Z,45.20
2018-10-12T04:08:48.430Z,40.90
2018-10-12T04:11:16.747Z,43.53
2018-10-12T04:13:45.091Z,42.10
2018-10-12T04:16:13.421Z,42.97
2018-10-12T04:18:41.799Z,46.17
2018-10-12T04:21:10.083Z,47.00
2018-10-12T04:23:38.646Z,49.30
2018-10-12T04:26:07.046Z,53.00
2018-10-12T04:28:35.549Z,49.33
2018-10-12T04:31:03.902Z,49.53
2018-10-12T04:33:32.206Z,50.10
2018-10-12T04:36:00.578Z,45.33
2018-10-12T04:38:44.015Z,44.57
2018-10-12T04:41:20.143Z,45.07
2018-10-12T04:43:49.766Z,50.50
2018-10-12T04:46:21.810Z,51.43
2018-10-12T04:48:50.918Z,50.27
2018-10-12T04:51:31.731Z,45.07
2018-10-12T04:54:00.222Z,48.50
2018-10-12T04:56:28.573Z,44.80
2018-10-12T04:58:56.856Z,46.23
2018-10-12T05:01:25.181Z,48.57
2018-10-12T05:03:53.504Z,49.67
2018-10-12T05:06:21.810Z,39.83
2018-10-12T05:08:50.091Z,40.57
2018-10-12T05:11:18.439Z,49.13
2018-10-12T05:13:46.703Z,50.33
2018-10-12T05:16:15.098Z,51.13
2018-10-12T05:18:43.375Z,53.00
2018-10-12T05:21:11.644Z,49.10
2018-10-12T05:23:39.941Z,58.07
2018-10-12T05:26:08.251Z,57.63
2018-10-12T05:28:37.547Z,62.77
2018-10-12T05:31:05.989Z,61.17
2018-10-12T05:33:34.319Z,63.70
2018-10-12T05:36:02.688Z,60.20
2018-10-12T05:38:31.949Z,57.87
2018-10-12T05:41:00.540Z,65.50
2018-10-12T05:43:29.147Z,66.03
2018-10-12T05:45:57.324Z,60.30
2018-10-12T05:48:36.794Z,73.60
2018-10-12T05:51:05.959Z,59.77
2018-10-12T05:53:34.693Z,58.03
2018-10-12T05:56:03.084Z,61.27
2018-10-12T05:58:31.721Z,62.87
2018-10-12T06:01:00.070Z,61.20
2018-10-12T06:03:28.449Z,74.67
2018-10-12T06:05:56.732Z,61.07
2018-10-12T06:08:25.033Z,61.90
2018-10-12T06:10:53.341Z,73.50
2018-10-12T06:13:21.610Z,62.30
2018-10-12T06:15:49.905Z,54.97
2018-10-12T06:18:18.176Z,58.33
2018-10-12T06:20:46.493Z,58.93
2018-10-12T06:23:14.761Z,44.17
2018-10-12T06:25:43.063Z,45.00
2018-10-12T06:28:11.360Z,45.30
2018-10-12T06:30:39.635Z,46.90
2018-10-12T06:33:07.980Z,46.23
2018-10-12T06:35:36.234Z,45.87
2018-10-12T06:38:04.535Z,40.60
2018-10-12T06:40:33.535Z,44.10
2018-10-12T06:43:02.042Z,43.43
2018-10-12T06:45:30.345Z,41.50
2018-10-12T06:47:58.647Z,41.63
2018-10-12T06:50:27.255Z,41.90
2018-10-12T06:52:55.523Z,48.53
2018-10-12T06:55:23.794Z,42.57
2018-10-12T06:57:52.092Z,44.53
2018-10-12T07:00:20.355Z,46.47
2018-10-12T07:02:48.699Z,47.97
2018-10-12T07:05:17.012Z,42.77
2018-10-12T07:07:45.638Z,41.40
2018-10-12T07:10:14.095Z,41.27
2018-10-12T07:12:42.473Z,49.97
2018-10-12T07:15:10.742Z,44.60
2018-10-12T07:17:39.036Z,42.43
2018-10-12T07:20:07.311Z,40.87
2018-10-12T07:22:35.810Z,41.03
2018-10-12T07:25:04.179Z,44.10
2018-10-12T07:27:32.551Z,39.73
2018-10-12T07:30:00.807Z,39.00
2018-10-12T07:32:29.077Z,40.77
2018-10-12T07:34:57.329Z,41.77
2018-10-12T07:37:25.811Z,44.40
2018-10-12T07:39:54.143Z,38.43
2018-10-12T07:42:22.561Z,37.87
2018-10-12T07:44:50.831Z,41.90
2018-10-12T07:47:19.185Z,40.43
2018-10-12T07:49:47.563Z,44.63
2018-10-12T07:52:15.862Z,41.83
2018-10-12T07:54:44.160Z,41.93
2018-10-12T07:57:13.726Z,42.10
2018-10-12T07:59:42.934Z,43.37
2018-10-12T08:02:12.027Z,46.47
2018-10-12T08:04:41.358Z,45.00
2018-10-12T08:07:10.214Z,38.97
2018-10-12T08:09:38.990Z,42.80
2018-10-12T08:12:07.589Z,41.03
2018-10-12T08:14:35.938Z,44.20
2018-10-12T08:17:04.242Z,45.33
2018-10-12T08:19:32.545Z,40.90
2018-10-12T08:22:00.834Z,40.80
2018-10-12T08:24:29.124Z,40.17
2018-10-12T08:26:57.429Z,39.33
2018-10-12T08:29:27.171Z,41.87
2018-10-12T08:31:55.458Z,36.90
2018-10-12T08:34:23.942Z,40.53
2018-10-12T08:36:52.309Z,38.13
2018-10-12T08:39:20.632Z,33.30
2018-10-12T08:41:49.021Z,35.63
2018-10-12T08:44:17.557Z,32.93
2018-10-12T08:46:45.861Z,32.77
2018-10-12T08:49:14.208Z,36.00
2018-10-12T08:51:42.491Z,36.63
2018-10-12T08:54:10.809Z,31.07
2018-10-12T08:56:39.272Z,34.00
2018-10-12T08:59:07.751Z,34.77
2018-10-12T09:01:36.127Z,29.97
2018-10-12T09:04:04.494Z,32.37
2018-10-12T09:06:32.807Z,33.00
2018-10-12T09:09:01.891Z,30.10
2018-10-12T09:11:30.162Z,31.93
2018-10-12T09:13:58.636Z,32.20
2018-10-12T09:16:26.988Z,26.23
2018-10-12T09:18:55.274Z,29.50
2018-10-12T09:21:23.570Z,27.20
2018-10-12T09:23:51.862Z,27.13
2018-10-12T09:26:20.375Z,33.70
2018-10-12T09:28:48.669Z,32.33
2018-10-12T09:31:17.923Z,28.57
2018-10-12T09:33:46.190Z,32.10
2018-10-12T09:36:14.503Z,29.13
2018-10-12T09:38:42.778Z,28.97
2018-10-12T09:41:11.090Z,29.53
2018-10-12T09:43:39.414Z,26.83
2018-10-12T09:46:07.879Z,23.63
2018-10-12T09:48:36.126Z,25.97
2018-10-12T09:51:04.394Z,24.73
2018-10-12T09:53:32.716Z,26.43
2018-10-12T09:56:01.142Z,24.90
2018-10-12T09:58:29.379Z,24.47
2018-10-12T10:01:03.081Z,27.37
2018-10-12T10:03:36.802Z,23.93
2018-10-12T10:06:05.164Z,23.30
2018-10-12T10:08:33.582Z,27.30
2018-10-12T10:11:01.726Z,21.10
2018-10-12T10:13:30.102Z,25.70
2018-10-12T10:15:58.373Z,23.97
2018-10-12T10:18:26.743Z,23.70
2018-10-12T10:20:55.039Z,24.30
2018-10-12T10:23:23.331Z,28.40
2018-10-12T10:25:51.693Z,22.67
2018-10-12T10:28:20.074Z,21.60
2018-10-12T10:30:48.434Z,23.57
2018-10-12T10:33:16.901Z,20.13
2018-10-12T10:35:45.329Z,20.53
2018-10-12T10:38:13.698Z,21.67
2018-10-12T10:40:41.994Z,17.83
2018-10-12T10:43:10.276Z,20.37
2018-10-12T10:45:38.550Z,22.30
2018-10-12T10:48:06.830Z,19.33
2018-10-12T10:50:35.185Z,18.00
2018-10-12T10:53:03.453Z,16.97
2018-10-12T10:55:31.739Z,16.63
2018-10-12T10:58:00.024Z,17.83
2018-10-12T11:00:28.323Z,16.53
2018-10-12T11:02:56.778Z,15.33
2018-10-12T11:05:25.055Z,19.73
2018-10-12T11:07:53.314Z,13.63
2018-10-12T11:10:21.596Z,17.87
2018-10-12T11:12:50.021Z,15.57
2018-10-12T11:15:18.275Z,11.60
2018-10-12T11:17:46.538Z,12.80
2018-10-12T11:20:14.805Z,8.47
2018-10-12T11:22:43.108Z,10.27
2018-10-12T11:25:11.396Z,12.67
2018-10-12T11:27:39.788Z,11.50
2018-10-12T11:30:08.062Z,10.50
2018-10-12T11:32:36.356Z,11.23
2018-10-12T11:35:04.912Z,14.50
2018-10-12T11:37:33.283Z,10.30
2018-10-12T11:40:01.562Z,13.13
2018-10-12T11:42:41.154Z,12.20
2018-10-12T11:45:09.445Z,8.73
2018-10-12T11:47:37.979Z,10.07
2018-10-12T11:50:06.258Z,11.23
2018-10-12T11:52:34.530Z,9.00
2018-10-12T11:55:03.000Z,13.80
2018-10-12T11:57:31.386Z,11.77
2018-10-12T11:59:59.757Z,13.33
2018-10-12T12:02:28.046Z,8.80
2018-10-12T12:04:56.303Z,11.50
2018-10-12T12:07:24.691Z,16.00
2018-10-12T12:09:52.890Z,11.60
2018-10-12T12:12:21.170Z,11.17
2018-10-12T12:14:49.551Z,10.83
2018-10-12T12:17:17.827Z,10.47
2018-10-12T12:19:46.095Z,9.73
2018-10-12T12:22:14.420Z,9.43
2018-10-12T12:24:42.850Z,10.00
2018-10-12T12:27:11.142Z,8.07
2018-10-12T12:29:39.487Z,10.50
2018-10-12T12:32:07.787Z,11.20
2018-10-12T12:34:36.181Z,9.23
2018-10-12T12:37:04.437Z,8.03
2018-10-12T12:39:32.715Z,8.50
2018-10-12T12:42:00.986Z,8.60
2018-10-12T12:44:29.259Z,8.37
2018-10-12T12:46:57.654Z,12.97
2018-10-12T12:49:26.154Z,12.80
2018-10-12T12:51:54.203Z,7.40
2018-10-12T12:54:22.522Z,10.70
2018-10-12T12:56:50.872Z,11.07
2018-10-12T12:59:19.159Z,6.70
2018-10-12T13:01:47.478Z,10.13
2018-10-12T13:04:15.807Z,9.77
2018-10-12T13:06:44.061Z,8.23
2018-10-12T13:09:12.343Z,7.20
2018-10-12T13:11:40.598Z,8.37
2018-10-12T13:14:09.250Z,9.57
2018-10-12T13:16:37.504Z,7.80
2018-10-12T13:19:05.885Z,9.10
2018-10-12T13:21:34.130Z,15.30
2018-10-12T13:24:02.423Z,10.37
2018-10-12T13:26:30.680Z,8.43
2018-10-12T13:28:59.132Z,8.40
2018-10-12T13:31:27.271Z,8.93
2018-10-12T13:33:55.561Z,14.47
2018-10-12T13:36:23.830Z,9.47
2018-10-12T13:38:52.098Z,4.67
2018-10-12T13:41:20.344Z,12.43
2018-10-12T13:43:48.636Z,10.43
2018-10-12T13:46:16.874Z,6.67
2018-10-12T13:48:45.151Z,8.57
2018-10-12T13:51:13.421Z,8.33
2018-10-12T13:53:41.773Z,7.47
2018-10-12T13:56:10.082Z,9.53
2018-10-12T13:58:38.339Z,6.30
2018-10-12T14:01:06.605Z,7.13
2018-10-12T14:03:34.846Z,13.43
2018-10-12T14:06:03.133Z,10.23
2018-10-12T14:08:31.382Z,8.77
2018-10-12T14:10:59.680Z,6.87
2018-10-12T14:13:27.925Z,6.90
2018-10-12T14:15:56.269Z,8.13
2018-10-12T14:18:24.549Z,8.93
2018-10-12T14:20:52.827Z,7.17
2018-10-12T14:23:21.073Z,9.23
2018-10-12T14:25:49.379Z,7.07
2018-10-12T14:28:17.625Z,9.20
2018-10-12T14:30:45.906Z,7.13
2018-10-12T14:33:14.174Z,8.00
2018-10-12T14:35:42.457Z,7.90
2018-10-12T14:38:10.707Z,5.47
2018-10-12T14:40:38.978Z,6.53
2018-10-12T14:43:07.259Z,9.40
2018-10-12T14:45:35.543Z,8.20
2018-10-12T14:48:03.817Z,6.70
2018-10-12T14:50:32.097Z,7.37
2018-10-12T14:53:00.380Z,6.03
2018-10-12T14:55:28.713Z,5.80
2018-10-12T14:57:56.962Z,7.67
2018-10-12T15:00:25.240Z,6.23
2018-10-12T15:02:53.493Z,9.53
2018-10-12T15:05:21.774Z,6.63
2018-10-12T15:07:50.046Z,8.10
2018-10-12T15:10:18.326Z,7.83
2018-10-12T15:12:46.581Z,5.53
2018-10-12T15:15:17.968Z,7.17
2018-10-12T15:17:47.004Z,10.83
2018-10-12T15:20:15.381Z,7.67
2018-10-12T15:22:43.632Z,5.03
2018-10-12T15:25:12.035Z,6.47
2018-10-12T15:27:40.942Z,4.27
2018-10-12T15:30:09.715Z,6.70
2018-10-12T15:32:38.072Z,7.10
2018-10-12T15:35:06.585Z,11.37
2018-10-12T15:37:34.913Z,5.17
2018-10-12T15:40:03.159Z,10.93
2018-10-12T15:42:31.526Z,6.90
2018-10-12T15:44:59.762Z,7.47
2018-10-12T15:47:28.050Z,6.73
2018-10-12T15:49:56.361Z,6.23
2018-10-12T15:52:24.654Z,7.67
2018-10-12T15:54:53.008Z,6.60
2018-10-12T15:57:28.681Z,10.10
2018-10-12T15:59:57.038Z,6.60
2018-10-12T16:02:25.329Z,10.70
2018-10-12T16:04:53.596Z,9.93
2018-10-12T16:07:21.919Z,10.33
2018-10-12T16:09:51.585Z,12.17
2018-10-12T16:12:20.794Z,13.13
2018-10-12T16:14:49.226Z,17.63
2018-10-12T16:17:17.762Z,13.13
2018-10-12T16:19:46.127Z,9.97
2018-10-12T16:22:14.509Z,6.43
2018-10-12T16:25:55.178Z,11.83
2018-10-12T16:28:23.793Z,8.40
2018-10-12T16:30:52.968Z,9.73
2018-10-12T16:33:21.255Z,8.93
2018-10-12T16:35:49.996Z,9.73
2018-10-12T16:38:18.226Z,7.40
2018-10-12T16:40:46.514Z,5.90
2018-10-12T16:43:15.890Z,7.97
2018-10-12T16:45:44.670Z,10.73
2018-10-12T16:48:13.573Z,7.40
2018-10-12T16:50:41.955Z,8.20
2018-10-12T16:53:10.859Z,9.03
2018-10-12T16:55:39.418Z,7.70
2018-10-12T16:58:08.185Z,8.97
2018-10-12T17:00:36.297Z,9.93
2018-10-12T17:03:04.791Z,12.43
2018-10-12T17:05:33.061Z,10.07
2018-10-12T17:08:01.750Z,9.40
2018-10-12T17:10:30.902Z,12.67
2018-10-12T17:12:59.444Z,11.13
2018-10-12T17:15:27.719Z,10.47
2018-10-12T17:17:57.204Z,11.97
2018-10-12T17:20:25.688Z,7.17
2018-10-12T17:22:54.175Z,7.37
2018-10-12T17:25:22.563Z,8.13
2018-10-12T17:27:50.839Z,8.07
2018-10-12T17:30:19.131Z,9.27
2018-10-12T17:32:47.397Z,10.43
2018-10-12T17:35:15.955Z,7.80
2018-10-12T17:37:44.292Z,11.60
2018-10-12T17:40:12.555Z,14.20
2018-10-12T17:42:40.831Z,11.30
2018-10-12T17:45:09.786Z,12.93
2018-10-12T17:47:38.132Z,10.67
2018-10-12T17:50:06.703Z,12.33
2018-10-12T17:52:34.991Z,10.87
2018-10-12T17:55:03.415Z,11.00
2018-10-12T17:57:31.743Z,9.80
2018-10-12T18:00:00.196Z,16.67
2018-10-12T18:02:28.454Z,13.57
2018-10-12T18:04:56.743Z,12.93
2018-10-12T18:07:25.111Z,12.60
2018-10-12T18:09:53.407Z,14.80
2018-10-12T18:12:21.681Z,11.87
2018-10-12T18:14:49.984Z,12.13
2018-10-12T18:17:18.323Z,20.47
2018-10-12T18:19:46.686Z,13.83
2018-10-12T18:22:15.067Z,15.50
2018-10-12T18:24:43.463Z,17.50
2018-10-12T18:27:11.729Z,16.77
2018-10-12T18:29:39.995Z,14.23
2018-10-12T18:32:08.504Z,15.57
2018-10-12T18:34:36.948Z,12.93
2018-10-12T18:37:05.260Z,16.50
2018-10-12T18:39:33.558Z,13.23
2018-10-12T18:42:01.835Z,17.53
2018-10-12T18:44:30.124Z,18.43
2018-10-12T18:46:58.511Z,17.47
2018-10-12T18:49:26.917Z,13.23
2018-10-12T18:51:55.233Z,15.20
2018-10-12T18:54:23.527Z,16.30
2018-10-12T18:56:51.803Z,15.93
2018-10-12T18:59:20.122Z,15.20
2018-10-12T19:01:48.428Z,15.00
2018-10-12T19:04:16.739Z,11.90
2018-10-12T19:06:45.048Z,14.03
2018-10-12T19:09:13.306Z,16.30
2018-10-12T19:11:41.863Z,15.63
2018-10-12T19:14:10.450Z,17.63
2018-10-12T19:16:38.737Z,13.90
2018-10-12T19:19:07.515Z,14.23
2018-10-12T19:21:35.793Z,11.30
2018-10-12T19:24:04.152Z,14.57
2018-10-12T19:26:32.520Z,15.93
2018-10-12T19:29:00.819Z,15.93
2018-10-12T19:31:29.383Z,13.50
2018-10-12T19:33:57.562Z,14.57
2018-10-12T19:36:25.910Z,15.17
2018-10-12T19:38:54.178Z,13.60
2018-10-12T19:41:22.470Z,16.20
2018-10-12T19:43:50.738Z,17.17
2018-10-12T19:46:19.009Z,15.00
2018-10-12T19:48:47.330Z,13.17
2018-10-12T19:51:15.680Z,12.40
2018-10-12T19:53:43.948Z,12.10
2018-10-12T19:56:12.262Z,12.13
2018-10-12T19:58:40.829Z,16.50
2018-10-12T20:01:09.362Z,15.40
2018-10-12T20:03:37.846Z,13.07
2018-10-12T20:06:06.351Z,15.00
2018-10-12T20:08:34.652Z,11.87
2018-10-12T20:11:02.949Z,11.33
2018-10-12T20:13:31.325Z,17.70
2018-10-12T20:15:59.645Z,15.20
2018-10-12T20:18:28.023Z,13.93
2018-10-12T20:20:56.350Z,12.80
2018-10-12T20:23:24.615Z,15.50
2018-10-12T20:25:52.959Z,13.77
2018-10-12T20:28:21.231Z,12.00
2018-10-12T20:30:49.513Z,14.87
2018-10-12T20:33:17.789Z,11.33
2018-10-12T20:35:46.061Z,14.17
2018-10-12T20:38:14.395Z,12.20
2018-10-12T20:40:42.667Z,12.27
2018-10-12T20:43:11.111Z,12.43
2018-10-12T20:45:39.495Z,10.90
2018-10-12T20:48:07.775Z,11.43
2018-10-12T20:50:36.186Z,11.10
2018-10-12T20:53:04.444Z,13.30
2018-10-12T20:55:32.726Z,10.13
2018-10-12T20:58:00.990Z,11.40
2018-10-12T21:00:29.418Z,12.33
2018-10-12T21:02:57.737Z,12.73
2018-10-12T21:05:26.042Z,13.27
2018-10-12T21:07:54.302Z,14.93
2018-10-12T21:10:22.586Z,15.77
2018-10-12T21:12:50.933Z,12.37
2018-10-12T21:15:19.230Z,12.87
2018-10-12T21:17:47.533Z,10.50
2018-10-12T21:20:15.883Z,12.33
2018-10-12T21:22:44.179Z,11.77
2018-10-12T21:25:12.478Z,15.63
2018-10-12T21:27:40.754Z,10.40
2018-10-12T21:30:09.021Z,11.63
2018-10-12T21:32:37.306Z,12.57
2018-10-12T21:35:05.610Z,14.47
2018-10-12T21:37:33.883Z,16.50
2018-10-12T21:40:02.159Z,13.20
2018-10-12T21:42:30.434Z,12.93
2018-10-12T21:44:58.698Z,16.40
2018-10-12T21:47:26.970Z,10.00
2018-10-12T21:49:55.314Z,12.77
2018-10-12T21:52:23.694Z,11.03
2018-10-12T21:54:51.958Z,13.23
2018-10-12T21:57:20.242Z,13.20
2018-10-12T21:59:48.582Z,14.80
2018-10-12T22:02:16.858Z,14.63
2018-10-12T22:04:45.161Z,12.97
2018-10-12T22:07:13.586Z,10.70
2018-10-12T22:09:41.870Z,15.20
2018-10-12T22:12:10.222Z,12.97
2018-10-12T22:14:38.470Z,14.43
2018-10-12T22:17:06.772Z,10.87
2018-10-12T22:19:35.060Z,12.87
2018-10-12T22:22:03.339Z,14.00
2018-10-12T22:24:31.716Z,12.30
2018-10-12T22:27:00.055Z,11.43
2018-10-12T22:29:28.476Z,12.47
2018-10-12T22:31:56.749Z,11.07
2018-10-12T22:34:25.074Z,13.20
2018-10-12T22:36:53.570Z,13.67
2018-10-12T22:39:22.025Z,16.03
2018-10-12T22:41:50.297Z,13.07
2018-10-12T22:44:18.857Z,10.37
2018-10-12T22:46:47.152Z,13.00
2018-10-12T22:49:15.413Z,12.77
2018-10-12T22:51:43.670Z,11.63
2018-10-12T22:54:11.994Z,12.93
2018-10-12T22:56:40.786Z,15.17
2018-10-12T22:59:09.817Z,10.17
2018-10-12T23:01:38.101Z,10.90
2018-10-12T23:04:06.429Z,11.83
2018-10-12T23:06:34.706Z,12.90
2018-10-12T23:09:04.191Z,16.30
2018-10-12T23:11:33.094Z,12.27
2018-10-12T23:14:02.519Z,16.10
2018-10-12T23:16:30.836Z,11.63
2018-10-12T23:18:59.113Z,13.47
2018-10-12T23:21:27.360Z,12.47
2018-10-12T23:23:55.743Z,10.30
2018-10-12T23:26:24.027Z,13.87
2018-10-12T23:28:52.304Z,13.23
2018-10-12T23:31:20.581Z,10.77
2018-10-12T23:34:10.626Z,15.60
2018-10-12T23:36:38.929Z,14.93
2018-10-12T23:39:08.480Z,15.63
2018-10-12T23:41:36.789Z,11.03
2018-10-12T23:44:05.410Z,13.07
2018-10-12T23:46:33.754Z,11.23
2018-10-12T23:49:02.067Z,13.77
2018-10-12T23:51:30.428Z,10.47
2018-10-12T23:53:58.794Z,12.23
2018-10-12T23:56:27.054Z,13.90
2018-10-12T23:58:55.324Z,11.23
